Terminal Aerodrome Forecast
Issued by NWS

Home | Current Version | Previous Version | Graphics & Text | Print | Product List | Glossary On
Versions: 1 2 3 4 5 6 7 8 9 10 11 12 13 14 15 16 17 18 19 20 21 22
000
FTUS41 KCLE 230900 AAA
TAFFDY
TAF AMD
KFDY 230915Z 2309/2406 21010KT 6SM -SHRA OVC035
     FM231500 18012G20KT P6SM OVC035
     FM232200 12020G30KT 4SM -SHRA SCT006 OVC012=

USA.gov is the U.S. government's official web portal to all federal, state and local government web resources and services.